createdAt,value
2019-04-19T00:01:52.217Z,13.90
2019-04-19T00:04:16.877Z,13.80
2019-04-19T00:07:00.538Z,13.90
2019-04-19T00:09:35.896Z,13.80
2019-04-19T00:12:04.470Z,13.70
2019-04-19T00:14:21.139Z,13.60
2019-04-19T00:16:50.764Z,13.50
2019-04-19T00:19:35.605Z,13.50
2019-04-19T00:22:13.299Z,13.40
2019-04-19T00:24:18.652Z,13.80
2019-04-19T00:26:46.889Z,13.40
2019-04-19T00:29:21.990Z,13.50
2019-04-19T00:32:06.438Z,13.30
2019-04-19T00:34:16.635Z,13.20
2019-04-19T00:36:46.643Z,13.40
2019-04-19T00:39:45.083Z,13.10
2019-04-19T00:42:24.745Z,13.10
2019-04-19T00:44:56.732Z,13.20
2019-04-19T00:47:28.721Z,13.10
2019-04-19T00:49:56.960Z,13.00
2019-04-19T00:52:49.379Z,12.90
2019-04-19T00:55:12.623Z,12.70
2019-04-19T00:57:39.328Z,12.80
2019-04-19T01:00:03.886Z,12.80
2019-04-19T01:02:35.306Z,12.80
2019-04-19T01:05:04.689Z,12.70
2019-04-19T01:07:35.849Z,12.60
2019-04-19T01:10:14.843Z,12.60
2019-04-19T01:12:50.040Z,12.60
2019-04-19T01:15:10.721Z,12.90
2019-04-19T01:17:47.597Z,12.50
2019-04-19T01:20:06.354Z,12.50
2019-04-19T01:22:33.149Z,12.80
2019-04-19T01:25:02.518Z,12.40
2019-04-19T01:27:34.407Z,12.30
2019-04-19T01:30:01.457Z,12.40
2019-04-19T01:32:30.355Z,12.50
2019-04-19T01:35:08.168Z,12.30
2019-04-19T01:37:33.151Z,12.20
2019-04-19T01:40:17.071Z,12.20
2019-04-19T01:42:50.952Z,12.30
2019-04-19T01:45:29.142Z,12.10
2019-04-19T01:48:15.992Z,12.00
2019-04-19T01:51:12.372Z,12.20
2019-04-19T01:53:39.123Z,12.00
2019-04-19T01:56:03.835Z,12.20
2019-04-19T01:58:25.665Z,11.70
2019-04-19T02:00:58.275Z,11.90
2019-04-19T02:03:33.385Z,11.80
2019-04-19T02:06:16.379Z,11.80
2019-04-19T02:08:48.035Z,11.70
2019-04-19T02:12:03.603Z,11.70
2019-04-19T02:14:26.974Z,11.70
2019-04-19T02:16:55.836Z,11.90
2019-04-19T02:19:23.336Z,11.70
2019-04-19T02:21:51.096Z,11.60
2019-04-19T02:24:21.587Z,11.70
2019-04-19T02:26:54.279Z,11.60
2019-04-19T02:29:21.914Z,11.70
2019-04-19T02:34:43.013Z,11.50
2019-04-19T02:44:45.791Z,11.40
2019-04-19T02:49:42.964Z,11.30
2019-04-19T02:52:15.140Z,11.30
2019-04-19T03:00:52.198Z,11.20
2019-04-19T03:03:07.835Z,11.50
2019-04-19T03:05:32.077Z,11.10
2019-04-19T03:07:45.575Z,11.20
2019-04-19T03:10:19.338Z,11.10
2019-04-19T03:13:03.442Z,11.00
2019-04-19T03:15:36.396Z,11.30
2019-04-19T03:18:08.853Z,11.00
2019-04-19T03:20:28.564Z,11.00
2019-04-19T03:22:59.432Z,10.90
2019-04-19T03:25:30.468Z,10.90
2019-04-19T03:27:55.673Z,10.90
2019-04-19T03:30:37.818Z,11.10
2019-04-19T03:35:39.426Z,10.80
2019-04-19T03:38:15.705Z,10.80
2019-04-19T03:40:34.772Z,10.70
2019-04-19T03:43:26.483Z,10.80
2019-04-19T03:45:56.193Z,10.80
2019-04-19T03:48:25.264Z,10.70
2019-04-19T03:50:54.704Z,10.80
2019-04-19T03:53:31.006Z,10.80
2019-04-19T03:56:04.289Z,10.80
2019-04-19T03:58:11.165Z,10.80
2019-04-19T04:00:36.270Z,10.80
2019-04-19T04:03:19.587Z,11.00
2019-04-19T04:05:44.417Z,10.80
2019-04-19T04:08:19.828Z,10.80
2019-04-19T04:10:54.070Z,10.80
2019-04-19T04:13:46.186Z,10.70
2019-04-19T04:16:25.093Z,10.80
2019-04-19T04:18:45.343Z,10.70
2019-04-19T04:21:14.166Z,10.70
2019-04-19T04:23:46.324Z,10.70
2019-04-19T04:26:16.432Z,10.70
2019-04-19T04:28:56.393Z,10.70
2019-04-19T04:31:22.853Z,10.60
2019-04-19T04:33:56.663Z,10.60
2019-04-19T04:36:39.860Z,10.50
2019-04-19T04:38:48.254Z,10.50
2019-04-19T04:41:22.821Z,10.80
2019-04-19T04:44:11.354Z,10.50
2019-04-19T04:46:46.300Z,10.70
2019-04-19T04:49:30.691Z,10.50
2019-04-19T04:51:55.842Z,10.50
2019-04-19T04:54:16.537Z,10.50
2019-04-19T04:57:00.406Z,10.70
2019-04-19T04:59:23.334Z,10.60
2019-04-19T05:01:58.634Z,10.70
2019-04-19T05:04:34.812Z,10.40
2019-04-19T05:07:12.531Z,10.50
2019-04-19T05:09:40.902Z,10.40
2019-04-19T05:12:12.888Z,10.70
2019-04-19T05:14:36.318Z,10.40
2019-04-19T05:17:30.434Z,10.60
2019-04-19T05:19:46.355Z,10.40
2019-04-19T05:22:12.670Z,10.40
2019-04-19T05:24:51.942Z,10.40
2019-04-19T05:27:15.164Z,10.50
2019-04-19T05:29:33.376Z,10.50
2019-04-19T05:32:04.883Z,10.70
2019-04-19T05:34:46.010Z,10.60
2019-04-19T05:37:15.032Z,10.60
2019-04-19T05:39:59.570Z,10.60
2019-04-19T05:42:42.846Z,10.70
2019-04-19T05:45:32.309Z,10.70
2019-04-19T05:47:34.990Z,10.80
2019-04-19T05:50:17.106Z,10.90
2019-04-19T05:52:39.473Z,10.90
2019-04-19T05:54:53.823Z,11.00
2019-04-19T05:57:42.686Z,11.10
2019-04-19T06:00:03.019Z,11.20
2019-04-19T06:02:31.387Z,11.30
2019-04-19T06:05:21.442Z,11.40
2019-04-19T06:07:39.106Z,11.50
2019-04-19T06:09:55.918Z,11.80
2019-04-19T06:12:28.780Z,11.70
2019-04-19T06:15:19.183Z,12.00
2019-04-19T06:17:53.474Z,11.90
2019-04-19T06:20:20.749Z,12.00
2019-04-19T06:22:59.748Z,12.10
2019-04-19T06:25:37.522Z,12.40
2019-04-19T06:28:12.824Z,12.30
2019-04-19T06:30:36.535Z,12.40
2019-04-19T06:33:07.277Z,12.50
2019-04-19T06:35:27.236Z,12.70
2019-04-19T06:37:46.492Z,12.80
2019-04-19T06:40:22.665Z,12.90
2019-04-19T06:42:55.514Z,13.10
2019-04-19T06:45:30.980Z,13.20
2019-04-19T06:47:54.625Z,13.40
2019-04-19T06:50:25.366Z,13.50
2019-04-19T06:52:48.932Z,13.60
2019-04-19T06:55:25.979Z,13.60
2019-04-19T06:57:57.866Z,13.80
2019-04-19T07:00:30.566Z,13.90
2019-04-19T07:02:49.742Z,14.30
2019-04-19T07:05:30.319Z,14.30
2019-04-19T07:08:18.276Z,14.30
2019-04-19T07:10:45.539Z,14.40
2019-04-19T07:13:04.891Z,14.70
2019-04-19T07:15:49.724Z,14.70
2019-04-19T07:18:02.487Z,14.90
2019-04-19T07:20:30.073Z,15.00
2019-04-19T07:23:03.339Z,15.30
2019-04-19T07:25:42.399Z,15.70
2019-04-19T07:28:01.191Z,15.60
2019-04-19T07:30:22.535Z,15.80
2019-04-19T07:33:00.360Z,16.10
2019-04-19T07:35:48.397Z,16.40
2019-04-19T07:38:19.496Z,16.60
2019-04-19T07:40:42.517Z,16.90
2019-04-19T07:43:10.384Z,17.30
2019-04-19T07:45:53.801Z,17.90
2019-04-19T07:48:11.228Z,19.20
2019-04-19T07:50:43.415Z,20.90
2019-04-19T07:53:03.942Z,23.00
2019-04-19T08:00:56.508Z,28.70
2019-04-19T08:04:06.705Z,30.00
2019-04-19T08:06:02.013Z,31.00
2019-04-19T08:08:39.784Z,31.60
2019-04-19T08:13:53.811Z,32.80
2019-04-19T08:16:04.461Z,33.00
2019-04-19T08:28:37.572Z,33.60
2019-04-19T08:31:02.602Z,32.40
2019-04-19T08:33:29.975Z,30.20
2019-04-19T08:36:02.116Z,28.60
2019-04-19T08:38:29.545Z,27.10
2019-04-19T08:41:09.100Z,25.90
2019-04-19T08:43:47.278Z,24.90
2019-04-19T08:46:00.810Z,24.00
2019-04-19T08:49:02.013Z,23.20
2019-04-19T08:51:43.567Z,22.60
2019-04-19T08:54:31.642Z,22.30
2019-04-19T08:56:53.719Z,22.40
2019-04-19T08:59:38.624Z,22.10
2019-04-19T09:02:05.337Z,22.10
2019-04-19T09:04:34.462Z,22.00
2019-04-19T09:09:37.184Z,21.90
2019-04-19T09:12:06.938Z,21.90
2019-04-19T09:14:43.217Z,21.90
2019-04-19T09:17:14.277Z,22.20
2019-04-19T09:19:55.275Z,21.90
2019-04-19T09:22:05.150Z,22.10
2019-04-19T09:24:29.187Z,21.90
2019-04-19T09:27:01.159Z,21.90
2019-04-19T09:29:40.137Z,22.00
2019-04-19T09:31:57.090Z,22.00
2019-04-19T09:34:21.586Z,22.10
2019-04-19T09:37:01.217Z,22.20
2019-04-19T09:39:34.685Z,22.20
2019-04-19T09:41:57.570Z,22.50
2019-04-19T09:44:31.842Z,22.50
2019-04-19T09:46:53.582Z,22.50
2019-04-19T09:49:38.007Z,22.70
2019-04-19T09:52:07.044Z,22.90
2019-04-19T09:54:48.111Z,23.00
2019-04-19T09:57:05.454Z,22.80
2019-04-19T09:59:27.826Z,23.00
2019-04-19T10:01:56.078Z,23.20
2019-04-19T10:04:20.945Z,23.30
2019-04-19T10:06:51.178Z,23.40
2019-04-19T10:09:22.231Z,23.40
2019-04-19T10:11:50.996Z,23.50
2019-04-19T10:14:19.441Z,23.60
2019-04-19T10:17:02.540Z,23.70
2019-04-19T10:19:30.730Z,24.00
2019-04-19T10:22:04.719Z,24.00
2019-04-19T10:24:33.427Z,24.00
2019-04-19T10:27:39.583Z,24.10
2019-04-19T10:30:24.479Z,23.80
2019-04-19T10:32:54.100Z,24.00
2019-04-19T10:35:20.674Z,24.00
2019-04-19T10:37:51.458Z,24.20
2019-04-19T10:40:19.578Z,24.10
2019-04-19T10:42:47.663Z,24.20
2019-04-19T10:45:16.189Z,24.20
2019-04-19T10:47:47.636Z,24.20
2019-04-19T10:50:27.336Z,24.30
2019-04-19T10:52:44.628Z,24.20
2019-04-19T10:55:13.970Z,24.20
2019-04-19T10:57:41.283Z,24.30
2019-04-19T11:00:09.296Z,24.40
2019-04-19T11:02:38.343Z,24.40
2019-04-19T11:05:07.394Z,24.20
2019-04-19T11:07:36.854Z,24.70
2019-04-19T11:10:05.512Z,24.50
2019-04-19T11:12:32.636Z,24.50
2019-04-19T11:15:06.517Z,24.60
2019-04-19T11:17:33.993Z,24.70
2019-04-19T11:20:16.994Z,24.80
2019-04-19T11:22:30.207Z,24.80
2019-04-19T11:24:57.650Z,24.80
2019-04-19T11:27:26.886Z,24.80
2019-04-19T11:29:58.561Z,24.90
2019-04-19T11:32:41.990Z,24.90
2019-04-19T11:35:13.825Z,24.90
2019-04-19T11:37:45.014Z,24.90
2019-04-19T11:40:17.199Z,24.90
2019-04-19T11:42:46.190Z,25.00
2019-04-19T11:45:17.806Z,25.10
2019-04-19T11:47:49.048Z,25.50
2019-04-19T11:50:18.053Z,25.20
2019-04-19T11:53:12.130Z,25.20
2019-04-19T11:55:42.818Z,25.20
2019-04-19T11:58:10.515Z,25.00
2019-04-19T12:01:03.731Z,24.90
2019-04-19T12:03:32.211Z,25.10
2019-04-19T12:06:04.564Z,25.20
2019-04-19T12:08:32.910Z,25.50
2019-04-19T12:11:00.635Z,25.30
2019-04-19T12:13:31.024Z,25.60
2019-04-19T12:15:59.414Z,25.40
2019-04-19T12:18:28.671Z,25.30
2019-04-19T12:20:57.544Z,25.30
2019-04-19T12:23:26.104Z,25.50
2019-04-19T12:25:55.501Z,25.30
2019-04-19T12:28:23.940Z,25.50
2019-04-19T12:30:55.575Z,25.30
2019-04-19T12:33:23.610Z,25.30
2019-04-19T12:35:52.993Z,25.40
2019-04-19T12:38:22.063Z,25.40
2019-04-19T12:40:58.212Z,25.50
2019-04-19T12:43:27.655Z,25.50
2019-04-19T12:45:57.186Z,25.60
2019-04-19T12:48:26.058Z,25.60
2019-04-19T12:50:55.592Z,25.80
2019-04-19T12:53:25.268Z,25.90
2019-04-19T12:55:54.221Z,25.80
2019-04-19T12:58:22.439Z,25.90
2019-04-19T13:01:08.519Z,25.80
2019-04-19T13:03:57.439Z,25.80
2019-04-19T13:06:27.556Z,25.70
2019-04-19T13:08:57.169Z,25.70
2019-04-19T13:11:27.210Z,25.90
2019-04-19T13:13:57.510Z,26.00
2019-04-19T13:16:26.469Z,25.90
2019-04-19T13:18:56.197Z,25.90
2019-04-19T13:21:26.187Z,25.80
2019-04-19T13:23:55.997Z,25.80
2019-04-19T13:26:25.264Z,25.80
2019-04-19T13:28:55.386Z,25.90
2019-04-19T13:31:24.948Z,25.90
2019-04-19T13:33:53.493Z,25.90
2019-04-19T13:36:51.413Z,26.00
2019-04-19T13:39:46.520Z,26.00
2019-04-19T13:42:16.977Z,25.90
2019-04-19T13:44:47.483Z,25.90
2019-04-19T13:47:16.760Z,25.90
2019-04-19T13:49:46.472Z,25.80
2019-04-19T13:52:14.554Z,25.70
2019-04-19T13:54:43.123Z,25.70
2019-04-19T13:57:11.503Z,25.70
2019-04-19T13:59:56.502Z,25.80
2019-04-19T14:02:20.553Z,25.80
2019-04-19T14:04:49.450Z,25.90
2019-04-19T14:07:17.064Z,25.90
2019-04-19T14:09:45.378Z,25.90
2019-04-19T14:12:15.524Z,25.90
2019-04-19T14:14:44.436Z,26.00
2019-04-19T14:17:15.886Z,25.80
2019-04-19T14:19:44.915Z,25.80
2019-04-19T14:22:13.447Z,25.80
2019-04-19T14:24:40.945Z,25.70
2019-04-19T14:27:15.221Z,25.80
2019-04-19T14:29:43.599Z,25.80
2019-04-19T14:32:13.565Z,25.80
2019-04-19T14:34:43.498Z,25.80
2019-04-19T14:37:18.804Z,26.20
2019-04-19T14:39:46.885Z,25.80
2019-04-19T14:42:14.368Z,25.90
2019-04-19T14:44:43.250Z,26.20
2019-04-19T14:47:12.809Z,25.80
2019-04-19T14:49:45.352Z,26.00
2019-04-19T14:52:14.153Z,25.70
2019-04-19T14:54:42.955Z,25.70
2019-04-19T14:57:11.186Z,25.60
2019-04-19T14:59:40.810Z,25.60
2019-04-19T15:02:33.358Z,25.50
2019-04-19T15:05:09.629Z,25.50
2019-04-19T15:07:38.596Z,25.30
2019-04-19T15:10:06.890Z,25.20
2019-04-19T15:12:34.467Z,25.10
2019-04-19T15:15:01.917Z,25.10
2019-04-19T15:17:29.303Z,25.00
2019-04-19T15:19:59.875Z,25.30
2019-04-19T15:22:28.405Z,25.00
2019-04-19T15:24:57.162Z,24.90
2019-04-19T15:27:25.751Z,25.00
2019-04-19T15:29:58.915Z,25.00
2019-04-19T15:32:26.589Z,25.00
2019-04-19T15:34:55.834Z,25.00
2019-04-19T15:37:25.563Z,25.00
2019-04-19T15:39:53.957Z,25.00
2019-04-19T15:42:26.830Z,25.10
2019-04-19T15:44:55.221Z,25.10
2019-04-19T15:47:22.462Z,25.00
2019-04-19T15:49:51.719Z,25.00
2019-04-19T15:52:23.922Z,24.90
2019-04-19T15:54:52.367Z,24.80
2019-04-19T15:57:20.510Z,25.10
2019-04-19T15:59:47.903Z,24.90
2019-04-19T16:02:36.030Z,24.80
2019-04-19T16:05:11.091Z,24.80
2019-04-19T16:08:18.026Z,24.80
2019-04-19T16:11:05.079Z,24.70
2019-04-19T16:13:34.093Z,24.70
2019-04-19T16:16:05.751Z,24.90
2019-04-19T16:18:36.129Z,24.60
2019-04-19T16:21:05.348Z,24.60
2019-04-19T16:23:34.383Z,24.40
2019-04-19T16:26:13.333Z,24.40
2019-04-19T16:28:41.850Z,24.40
2019-04-19T16:31:10.497Z,24.40
2019-04-19T16:33:38.284Z,24.80
2019-04-19T16:36:10.927Z,24.30
2019-04-19T16:38:38.303Z,24.20
2019-04-19T16:41:06.566Z,24.20
2019-04-19T16:43:33.754Z,24.10
2019-04-19T16:46:11.710Z,24.00
2019-04-19T16:48:32.980Z,24.10
2019-04-19T16:51:01.187Z,24.00
2019-04-19T16:53:29.712Z,24.30
2019-04-19T16:55:59.461Z,23.90
2019-04-19T16:58:28.539Z,23.90
2019-04-19T17:00:58.729Z,23.90
2019-04-19T17:03:27.722Z,23.80
2019-04-19T17:06:02.292Z,23.70
2019-04-19T17:08:30.146Z,23.60
2019-04-19T17:10:59.723Z,23.60
2019-04-19T17:13:29.162Z,23.60
2019-04-19T17:16:27.318Z,23.50
2019-04-19T17:19:24.554Z,23.50
2019-04-19T17:22:03.430Z,23.60
2019-04-19T17:24:25.549Z,23.60
2019-04-19T17:26:58.585Z,23.50
2019-04-19T17:29:27.087Z,23.60
2019-04-19T17:31:56.150Z,23.50
2019-04-19T17:34:24.352Z,23.40
2019-04-19T17:36:51.837Z,23.30
2019-04-19T17:39:26.689Z,23.40
2019-04-19T17:41:54.644Z,23.20
2019-04-19T17:44:22.305Z,23.10
2019-04-19T17:46:54.681Z,23.10
2019-04-19T17:49:22.522Z,23.10
2019-04-19T17:52:01.967Z,23.00
2019-04-19T17:54:41.485Z,23.00
2019-04-19T17:57:02.824Z,22.90
2019-04-19T17:59:32.297Z,22.90
2019-04-19T18:02:01.230Z,22.80
2019-04-19T18:04:32.252Z,22.70
2019-04-19T18:07:04.589Z,22.60
2019-04-19T18:09:33.067Z,22.50
2019-04-19T18:12:01.172Z,22.50
2019-04-19T18:14:33.744Z,22.40
2019-04-19T18:17:01.087Z,22.40
2019-04-19T18:19:33.287Z,22.70
2019-04-19T18:22:11.352Z,22.30
2019-04-19T18:24:29.735Z,22.20
2019-04-19T18:27:02.310Z,22.20
2019-04-19T18:29:28.695Z,22.20
2019-04-19T18:32:03.313Z,22.10
2019-04-19T18:34:43.208Z,22.00
2019-04-19T18:37:14.352Z,21.90
2019-04-19T18:39:44.607Z,21.90
2019-04-19T18:42:13.676Z,21.80
2019-04-19T18:44:47.645Z,21.80
2019-04-19T18:47:12.385Z,21.80
2019-04-19T18:49:47.663Z,21.80
2019-04-19T18:52:32.346Z,21.70
2019-04-19T18:54:54.082Z,21.60
2019-04-19T18:57:14.514Z,21.60
2019-04-19T18:59:44.512Z,21.50
2019-04-19T19:02:20.826Z,21.40
2019-04-19T19:04:46.735Z,21.40
2019-04-19T19:07:20.702Z,21.40
2019-04-19T19:09:48.512Z,21.50
2019-04-19T19:12:20.345Z,21.10
2019-04-19T19:14:51.472Z,21.10
2019-04-19T19:17:20.120Z,21.50
2019-04-19T19:20:12.262Z,21.00
2019-04-19T19:22:52.102Z,20.90
2019-04-19T19:25:21.413Z,20.90
2019-04-19T19:27:37.857Z,20.90
2019-04-19T19:30:06.760Z,20.80
2019-04-19T19:32:34.337Z,20.70
2019-04-19T19:35:13.436Z,20.70
2019-04-19T19:37:39.427Z,20.60
2019-04-19T19:40:15.560Z,20.60
2019-04-19T19:43:01.301Z,20.60
2019-04-19T19:45:21.613Z,20.50
2019-04-19T19:48:42.447Z,20.50
2019-04-19T19:51:04.791Z,20.50
2019-04-19T19:56:18.630Z,20.40
2019-04-19T19:58:29.868Z,20.30
2019-04-19T20:01:07.083Z,20.30
2019-04-19T20:03:35.213Z,20.20
2019-04-19T20:06:06.602Z,20.00
2019-04-19T20:08:34.751Z,20.00
2019-04-19T20:10:59.290Z,20.00
2019-04-19T20:13:34.545Z,19.90
2019-04-19T20:15:56.777Z,19.90
2019-04-19T20:18:30.894Z,20.20
2019-04-19T20:20:54.497Z,19.70
2019-04-19T20:23:30.221Z,19.70
2019-04-19T20:26:04.455Z,19.50
2019-04-19T20:28:26.476Z,19.50
2019-04-19T20:30:53.554Z,19.40
2019-04-19T20:33:25.742Z,19.40
2019-04-19T20:35:55.141Z,19.30
2019-04-19T20:38:23.328Z,19.20
2019-04-19T20:40:55.939Z,19.10
2019-04-19T20:43:35.317Z,19.00
2019-04-19T20:45:51.276Z,18.90
2019-04-19T20:48:21.088Z,18.90
2019-04-19T20:50:55.918Z,18.80
2019-04-19T20:53:35.808Z,18.80
2019-04-19T20:56:32.006Z,18.70
2019-04-19T20:58:35.485Z,19.00
2019-04-19T21:00:58.860Z,18.50
2019-04-19T21:03:34.452Z,18.40
2019-04-19T21:05:59.967Z,18.40
2019-04-19T21:08:29.066Z,18.30
2019-04-19T21:11:02.311Z,18.20
2019-04-19T21:13:27.361Z,18.10
2019-04-19T21:15:56.187Z,18.00
2019-04-19T21:18:26.197Z,17.90
2019-04-19T21:21:00.797Z,17.90
2019-04-19T21:23:31.251Z,17.80
2019-04-19T21:26:00.630Z,17.70
2019-04-19T21:28:33.205Z,17.60
2019-04-19T21:31:00.887Z,17.50
2019-04-19T21:33:26.735Z,17.70
2019-04-19T21:36:02.193Z,17.40
2019-04-19T21:38:25.049Z,17.20
2019-04-19T21:40:53.287Z,17.30
2019-04-19T21:43:29.560Z,17.20
2019-04-19T21:45:52.994Z,17.20
2019-04-19T21:48:24.849Z,17.10
2019-04-19T21:50:50.158Z,17.00
2019-04-19T21:53:18.706Z,16.90
2019-04-19T21:55:54.081Z,16.90
2019-04-19T21:58:19.529Z,16.70
2019-04-19T22:01:03.640Z,16.70
2019-04-19T22:03:30.450Z,16.60
2019-04-19T22:06:01.888Z,16.50
2019-04-19T22:08:31.847Z,16.80
2019-04-19T22:11:00.434Z,16.40
2019-04-19T22:13:32.011Z,16.40
2019-04-19T22:16:00.100Z,16.30
2019-04-19T22:18:27.735Z,16.20
2019-04-19T22:20:58.531Z,16.20
2019-04-19T22:23:30.921Z,16.10
2019-04-19T22:26:09.835Z,16.00
2019-04-19T22:28:27.677Z,16.00
2019-04-19T22:30:56.435Z,16.00
2019-04-19T22:33:24.795Z,16.00
2019-04-19T22:35:54.964Z,15.90
2019-04-19T22:38:22.898Z,15.90
2019-04-19T22:40:54.747Z,15.40
2019-04-19T22:43:22.650Z,15.90
2019-04-19T22:45:56.796Z,16.00
2019-04-19T22:48:21.467Z,15.60
2019-04-19T22:50:49.170Z,15.60
2019-04-19T22:53:25.697Z,15.60
2019-04-19T22:55:59.260Z,15.50
2019-04-19T22:58:24.152Z,15.50
2019-04-19T23:00:49.949Z,15.40
2019-04-19T23:06:32.515Z,15.30
2019-04-19T23:09:00.932Z,15.20
2019-04-19T23:11:29.825Z,15.20
2019-04-19T23:13:57.035Z,15.10
2019-04-19T23:16:25.556Z,15.10
2019-04-19T23:19:00.703Z,15.10
2019-04-19T23:21:24.782Z,15.10
2019-04-19T23:23:51.218Z,15.00
2019-04-19T23:26:30.643Z,14.90
2019-04-19T23:28:49.495Z,14.90
2019-04-19T23:31:17.961Z,14.90
2019-04-19T23:33:54.175Z,14.80
2019-04-19T23:36:21.272Z,14.80
2019-04-19T23:38:45.871Z,14.80
2019-04-19T23:41:13.241Z,14.70
2019-04-19T23:43:43.972Z,14.70
2019-04-19T23:46:18.736Z,14.60
2019-04-19T23:48:42.689Z,14.60
2019-04-19T23:51:13.756Z,14.50
2019-04-19T23:53:44.547Z,14.50
2019-04-19T23:56:22.371Z,14.40
2019-04-19T23:58:42.598Z,14.40
